createdAt,value
2022-08-26T00:10:03.974Z,99452.13
2022-08-26T00:20:14.184Z,99447.91
2022-08-26T00:30:24.101Z,99446.60
2022-08-26T00:40:34.253Z,99437.73
2022-08-26T00:50:43.570Z,99433.16
2022-08-26T01:00:49.756Z,99436.58
2022-08-26T01:10:58.158Z,99442.20
2022-08-26T01:21:12.768Z,99447.61
2022-08-26T01:31:21.892Z,99444.15
2022-08-26T01:41:29.117Z,99445.85
2022-08-26T01:51:37.302Z,99443.59
2022-08-26T02:01:43.959Z,99445.67
2022-08-26T02:11:51.633Z,99439.77
2022-08-26T02:21:59.992Z,99441.79
2022-08-26T02:32:10.298Z,99438.39
2022-08-26T02:42:16.518Z,99437.98
2022-08-26T02:52:22.964Z,99437.35
2022-08-26T03:02:28.996Z,99437.98
2022-08-26T03:12:34.825Z,99431.09
2022-08-26T03:22:41.370Z,99428.42
2022-08-26T03:32:47.300Z,99421.91
2022-08-26T03:42:53.987Z,99424.05
2022-08-26T03:53:00.185Z,99420.91
2022-08-26T04:03:09.671Z,99422.14
2022-08-26T04:13:15.792Z,99421.70
2022-08-26T04:23:22.446Z,99423.52
2022-08-26T04:33:33.207Z,99421.86
2022-08-26T04:43:39.481Z,99422.25
2022-08-26T04:53:45.563Z,99423.58
2022-08-26T05:03:52.052Z,99422.27
2022-08-26T05:14:01.607Z,99419.27
2022-08-26T05:24:11.683Z,99424.66
2022-08-26T05:34:17.796Z,99429.02
2022-08-26T05:44:26.299Z,99431.23
2022-08-26T05:54:34.064Z,99430.34
2022-08-26T06:04:40.051Z,99431.39
2022-08-26T06:14:46.150Z,99428.86
2022-08-26T06:25:12.626Z,99423.14
2022-08-26T06:35:18.556Z,99426.65
2022-08-26T06:45:24.574Z,99418.77
2022-08-26T06:55:30.677Z,99414.55
2022-08-26T07:05:37.014Z,99412.94
2022-08-26T07:15:45.842Z,99414.23
2022-08-26T07:25:51.918Z,99413.12
2022-08-26T07:35:58.090Z,99409.83
2022-08-26T07:46:07.586Z,99408.69
2022-08-26T07:56:13.989Z,99403.41
2022-08-26T08:06:20.130Z,99403.98
2022-08-26T08:16:26.847Z,99403.33
2022-08-26T08:26:35.334Z,99397.80
2022-08-26T08:36:42.151Z,99399.48
2022-08-26T08:46:51.799Z,99397.80
2022-08-26T08:57:03.878Z,99393.38
2022-08-26T09:07:18.306Z,99395.79
2022-08-26T09:17:33.398Z,99400.95
2022-08-26T09:27:45.753Z,99400.98
2022-08-26T09:48:03.078Z,99378.36
2022-08-26T09:58:13.448Z,99373.64
2022-08-26T10:08:26.093Z,99369.43
2022-08-26T10:18:38.464Z,99360.40
2022-08-26T10:28:49.574Z,99351.55
2022-08-26T10:38:55.690Z,99345.83
2022-08-26T10:49:06.890Z,99338.49
2022-08-26T10:59:29.395Z,99329.90
2022-08-26T11:09:49.072Z,99322.27
2022-08-26T11:20:09.511Z,99307.25
2022-08-26T11:30:57.834Z,99303.26
2022-08-26T11:41:09.912Z,99292.77
2022-08-26T11:51:24.669Z,99295.55
2022-08-26T12:01:35.725Z,99287.47
2022-08-26T12:11:42.306Z,99281.27
2022-08-26T12:21:57.929Z,99272.42
2022-08-26T12:32:13.608Z,99260.64
2022-08-26T12:42:42.189Z,99257.92
2022-08-26T12:52:58.821Z,99242.55
2022-08-26T13:03:05.286Z,99240.39
2022-08-26T13:13:11.632Z,99231.84
2022-08-26T13:23:17.650Z,99208.95
2022-08-26T13:33:23.648Z,99202.11
2022-08-26T13:43:30.499Z,99195.48
2022-08-26T13:53:36.310Z,99188.83
2022-08-26T14:03:42.622Z,99181.50
2022-08-26T14:13:48.581Z,99182.05
2022-08-26T14:24:00.333Z,99173.63
2022-08-26T14:34:09.513Z,99169.28
2022-08-26T14:44:17.935Z,99164.92
2022-08-26T14:54:24.108Z,99158.30
2022-08-26T15:04:31.316Z,99153.13
2022-08-26T15:14:35.601Z,99137.99
2022-08-26T15:24:41.757Z,99133.85
2022-08-26T15:34:47.938Z,99129.58
2022-08-26T15:44:55.801Z,99126.71
2022-08-26T16:05:09.375Z,99126.25
2022-08-26T16:15:16.273Z,99125.85
2022-08-26T16:25:22.699Z,99120.44
2022-08-26T16:35:28.802Z,99116.69
2022-08-26T16:45:38.293Z,99110.78
2022-08-26T16:55:49.715Z,99113.92
2022-08-26T17:05:56.087Z,99114.25
2022-08-26T17:16:02.407Z,99119.02
2022-08-26T17:26:11.677Z,99117.52
2022-08-26T17:36:16.174Z,99120.20
2022-08-26T17:46:22.153Z,99123.83
2022-08-26T17:56:30.605Z,99123.17
2022-08-26T18:06:36.853Z,99124.27
2022-08-26T18:16:42.731Z,99121.23
2022-08-26T18:26:51.011Z,99126.91
2022-08-26T18:36:56.784Z,99121.11
2022-08-26T18:47:02.691Z,99121.94
2022-08-26T18:57:08.707Z,99117.31
2022-08-26T19:07:14.811Z,99113.14
2022-08-26T19:17:22.616Z,99111.43
2022-08-26T19:27:29.865Z,99115.54
2022-08-26T19:37:35.894Z,99118.84
2022-08-26T19:47:42.464Z,99117.30
2022-08-26T19:57:48.208Z,99128.48
2022-08-26T20:07:54.434Z,99140.08
2022-08-26T20:18:00.184Z,99146.70
2022-08-26T20:28:06.716Z,99159.36
2022-08-26T20:38:12.775Z,99163.64
2022-08-26T20:48:18.786Z,99170.95
2022-08-26T20:58:25.978Z,99170.71
2022-08-26T21:08:33.370Z,99172.23
2022-08-26T21:18:39.766Z,99177.73
2022-08-26T21:28:46.810Z,99180.23
2022-08-26T21:38:52.818Z,99175.89
2022-08-26T21:49:00.597Z,99172.76
2022-08-26T21:59:07.232Z,99173.16
2022-08-26T22:09:15.171Z,99158.45
2022-08-26T22:19:23.393Z,99156.05
2022-08-26T22:29:29.858Z,99145.77
2022-08-26T22:39:35.727Z,99144.67
2022-08-26T22:49:41.944Z,99142.36
2022-08-26T22:59:48.464Z,99137.04
2022-08-26T23:09:54.298Z,99127.19
2022-08-26T23:20:00.227Z,99127.36
2022-08-26T23:30:07.281Z,99129.52
2022-08-26T23:40:17.713Z,99128.77
2022-08-26T23:50:48.139Z,99113.17
